createdAt,value
2023-02-06T00:00:23.597Z,100304.75
2023-02-06T00:01:56.758Z,100302.97
2023-02-06T00:03:29.132Z,100300.31
2023-02-06T00:05:02.436Z,100305.47
2023-02-06T00:06:35.116Z,100300.28
2023-02-06T00:08:08.291Z,100298.44
2023-02-06T00:09:41.460Z,100294.75
2023-02-06T00:11:16.962Z,100303.22
2023-02-06T00:12:50.115Z,100309.13
2023-02-06T00:14:23.269Z,100309.00
2023-02-06T00:15:56.972Z,100304.56
2023-02-06T00:17:30.258Z,100300.19
2023-02-06T00:19:04.017Z,100307.06
2023-02-06T00:20:37.763Z,100305.09
2023-02-06T00:22:13.619Z,100309.19
2023-02-06T00:23:46.577Z,100303.78
2023-02-06T00:25:19.993Z,100304.53
2023-02-06T00:26:53.168Z,100312.19
2023-02-06T00:28:26.418Z,100313.88
2023-02-06T00:29:59.800Z,100310.44
2023-02-06T00:31:34.550Z,100307.03
2023-02-06T00:33:08.003Z,100312.03
2023-02-06T00:34:41.286Z,100308.59
2023-02-06T00:36:14.460Z,100309.44
2023-02-06T00:37:47.679Z,100310.25
2023-02-06T00:39:21.071Z,100305.06
2023-02-06T00:40:54.418Z,100300.72
2023-02-06T00:42:27.726Z,100302.41
2023-02-06T00:44:00.957Z,100304.84
2023-02-06T00:45:33.370Z,100311.59
2023-02-06T00:47:09.277Z,100312.44
2023-02-06T00:48:43.207Z,100307.28
2023-02-06T00:50:16.921Z,100318.34
2023-02-06T00:51:50.125Z,100313.19
2023-02-06T00:53:22.603Z,100311.44
2023-02-06T00:54:56.166Z,100309.59
2023-02-06T00:56:29.501Z,100320.69
2023-02-06T00:58:01.625Z,100316.28
2023-02-06T00:59:34.827Z,100318.81
2023-02-06T01:01:08.165Z,100319.72
2023-02-06T01:02:41.978Z,100315.28
2023-02-06T01:04:15.168Z,100309.88
2023-02-06T01:05:48.562Z,100316.63
2023-02-06T01:07:22.139Z,100316.28
2023-02-06T01:08:55.471Z,100332.22
2023-02-06T01:10:28.600Z,100332.13
2023-02-06T01:12:00.913Z,100329.41
2023-02-06T01:13:34.191Z,100330.25
2023-02-06T01:15:11.213Z,100326.75
2023-02-06T01:16:44.534Z,100318.00
2023-02-06T01:18:19.116Z,100325.88
2023-02-06T01:19:51.415Z,100317.03
2023-02-06T01:21:25.955Z,100315.97
2023-02-06T01:22:59.567Z,100310.50
2023-02-06T01:24:32.958Z,100313.56
2023-02-06T01:26:07.688Z,100305.28
2023-02-06T01:27:41.685Z,100319.84
2023-02-06T01:29:14.849Z,100312.09
2023-02-06T01:30:48.090Z,100310.38
2023-02-06T01:32:21.387Z,100314.56
2023-02-06T01:33:57.823Z,100317.84
2023-02-06T01:35:31.140Z,100316.06
2023-02-06T01:37:04.628Z,100329.59
2023-02-06T01:38:36.893Z,100317.28
2023-02-06T01:40:14.962Z,100318.34
2023-02-06T01:41:48.147Z,100313.31
2023-02-06T01:43:21.973Z,100314.22
2023-02-06T01:45:33.775Z,100310.94
2023-02-06T01:47:06.987Z,100308.34
2023-02-06T01:48:43.841Z,100307.66
2023-02-06T01:50:18.572Z,100308.47
2023-02-06T01:51:55.406Z,100314.47
2023-02-06T01:53:28.681Z,100315.31
2023-02-06T01:55:05.433Z,100303.19
2023-02-06T01:56:42.882Z,100305.69
2023-02-06T01:58:19.450Z,100308.03
2023-02-06T01:59:58.373Z,100303.75
2023-02-06T02:01:31.722Z,100314.81
2023-02-06T02:03:05.207Z,100313.06
2023-02-06T02:04:38.628Z,100312.19
2023-02-06T02:06:15.340Z,100313.06
2023-02-06T02:07:52.622Z,100319.66
2023-02-06T02:09:26.541Z,100312.72
2023-02-06T02:11:00.777Z,100308.16
2023-02-06T02:12:33.860Z,100318.59
2023-02-06T02:14:12.204Z,100330.53
2023-02-06T02:15:58.130Z,100330.53
2023-02-06T02:17:40.248Z,100326.44
2023-02-06T02:19:45.647Z,100336.81
2023-02-06T02:22:03.122Z,100326.56
2023-02-06T02:23:47.083Z,100337.25
2023-02-06T02:26:15.027Z,100342.28
2023-02-06T02:28:19.735Z,100346.56
2023-02-06T02:30:40.648Z,100343.91
2023-02-06T02:32:58.842Z,100337.00
2023-02-06T02:35:00.520Z,100344.16
2023-02-06T02:36:38.907Z,100344.41
2023-02-06T02:38:26.110Z,100344.63
2023-02-06T02:40:07.079Z,100344.75
2023-02-06T02:41:50.208Z,100348.28
2023-02-06T02:43:35.374Z,100348.28
2023-02-06T02:45:14.880Z,100348.28
2023-02-06T02:46:53.761Z,100349.13
2023-02-06T02:48:31.689Z,100344.97
2023-02-06T02:50:07.524Z,100344.88
2023-02-06T02:51:42.477Z,100360.34
2023-02-06T02:53:15.137Z,100351.72
2023-02-06T02:54:48.366Z,100349.44
2023-02-06T02:56:24.187Z,100343.78
2023-02-06T02:58:05.181Z,100346.25
2023-02-06T02:59:44.770Z,100345.09
2023-02-06T03:01:22.612Z,100345.22
2023-02-06T03:02:59.034Z,100348.00
2023-02-06T03:04:38.664Z,100341.09
2023-02-06T03:06:35.466Z,100355.03
2023-02-06T03:08:18.156Z,100349.19
2023-02-06T03:10:00.584Z,100347.44
2023-02-06T03:11:33.588Z,100353.41
2023-02-06T03:13:16.426Z,100356.91
2023-02-06T03:14:54.999Z,100362.22
2023-02-06T03:16:34.465Z,100363.03
2023-02-06T03:18:13.832Z,100359.81
2023-02-06T03:19:50.606Z,100373.56
2023-02-06T03:21:28.192Z,100377.09
2023-02-06T03:23:04.690Z,100365.13
2023-02-06T03:24:40.690Z,100365.97
2023-02-06T03:26:16.879Z,100371.13
2023-02-06T03:27:52.069Z,100381.56
2023-02-06T03:29:27.124Z,100378.28
2023-02-06T03:31:04.293Z,100386.84
2023-02-06T03:32:43.558Z,100385.91
2023-02-06T03:34:21.932Z,100379.13
2023-02-06T03:35:57.791Z,100382.75
2023-02-06T03:37:32.597Z,100378.59
2023-02-06T03:39:05.978Z,100377.97
2023-02-06T03:40:42.215Z,100389.47
2023-02-06T03:42:17.484Z,100381.78
2023-02-06T03:43:53.537Z,100377.25
2023-02-06T03:45:30.425Z,100385.91
2023-02-06T03:47:04.358Z,100387.78
2023-02-06T03:48:41.202Z,100382.06
2023-02-06T03:50:15.594Z,100388.94
2023-02-06T03:51:53.297Z,100395.31
2023-02-06T03:53:27.545Z,100395.53
2023-02-06T03:55:03.509Z,100392.38
2023-02-06T03:56:41.259Z,100400.34
2023-02-06T03:58:15.615Z,100407.47
2023-02-06T03:59:49.290Z,100397.78
2023-02-06T04:01:23.354Z,100408.09
2023-02-06T04:02:58.515Z,100399.66
2023-02-06T04:04:35.139Z,100405.00
2023-02-06T04:06:08.655Z,100397.63
2023-02-06T04:07:41.824Z,100403.81
2023-02-06T04:09:16.861Z,100407.53
2023-02-06T04:10:50.038Z,100412.97
2023-02-06T04:12:24.665Z,100401.72
2023-02-06T04:13:57.851Z,100411.53
2023-02-06T04:15:31.228Z,100412.66
2023-02-06T04:17:04.711Z,100409.41
2023-02-06T04:18:37.932Z,100414.66
2023-02-06T04:20:11.922Z,100416.09
2023-02-06T04:21:45.302Z,100410.22
2023-02-06T04:23:18.830Z,100407.69
2023-02-06T04:24:52.736Z,100419.03
2023-02-06T04:26:25.843Z,100414.72
2023-02-06T04:27:59.182Z,100419.94
2023-02-06T04:29:32.387Z,100418.91
2023-02-06T04:31:06.541Z,100424.28
2023-02-06T04:32:38.670Z,100426.06
2023-02-06T04:34:12.025Z,100421.09
2023-02-06T04:35:45.295Z,100422.34
2023-02-06T04:37:18.630Z,100418.97
2023-02-06T04:38:52.016Z,100413.84
2023-02-06T04:40:26.851Z,100415.84
2023-02-06T04:41:58.995Z,100410.59
2023-02-06T04:43:32.656Z,100420.00
2023-02-06T04:45:05.356Z,100431.53
2023-02-06T04:46:38.890Z,100421.44
2023-02-06T04:48:12.256Z,100425.81
2023-02-06T04:49:45.545Z,100431.22
2023-02-06T04:51:17.717Z,100429.44
2023-02-06T04:52:50.954Z,100440.78
2023-02-06T04:54:24.782Z,100429.53
2023-02-06T04:56:03.735Z,100432.28
2023-02-06T04:57:36.806Z,100441.88
2023-02-06T04:59:10.284Z,100449.78
2023-02-06T05:00:43.476Z,100449.91
2023-02-06T05:02:16.749Z,100454.84
2023-02-06T05:03:50.270Z,100451.50
2023-02-06T05:05:23.684Z,100454.69
2023-02-06T05:06:56.818Z,100449.25
2023-02-06T05:08:30.549Z,100463.72
2023-02-06T05:10:03.935Z,100455.06
2023-02-06T05:11:38.538Z,100460.28
2023-02-06T05:13:11.263Z,100463.59
2023-02-06T05:14:44.719Z,100457.75
2023-02-06T05:16:18.789Z,100459.63
2023-02-06T05:17:52.282Z,100454.63
2023-02-06T05:19:25.460Z,100459.69
2023-02-06T05:20:58.944Z,100464.13
2023-02-06T05:22:32.142Z,100463.44
2023-02-06T05:24:05.703Z,100467.06
2023-02-06T05:25:41.343Z,100465.22
2023-02-06T05:27:17.028Z,100474.00
2023-02-06T05:28:50.130Z,100470.59
2023-02-06T05:30:23.873Z,100466.41
2023-02-06T05:31:57.152Z,100469.94
2023-02-06T05:33:30.762Z,100465.72
2023-02-06T05:35:03.926Z,100469.16
2023-02-06T05:36:36.833Z,100470.22
2023-02-06T05:38:10.297Z,100463.19
2023-02-06T05:39:43.664Z,100464.09
2023-02-06T05:41:17.047Z,100467.28
2023-02-06T05:42:52.021Z,100451.31
2023-02-06T05:44:25.164Z,100454.31
2023-02-06T05:45:58.527Z,100470.03
2023-02-06T05:47:31.605Z,100475.94
2023-02-06T05:49:04.884Z,100476.88
2023-02-06T05:50:38.030Z,100466.41
2023-02-06T05:52:21.044Z,100474.25
2023-02-06T05:53:53.124Z,100478.44
2023-02-06T05:55:26.457Z,100476.66
2023-02-06T05:56:59.634Z,100479.41
2023-02-06T05:58:34.539Z,100478.75
2023-02-06T06:00:08.747Z,100484.88
2023-02-06T06:01:44.817Z,100488.50
2023-02-06T06:03:18.024Z,100488.66
2023-02-06T06:04:51.508Z,100486.00
2023-02-06T06:06:24.599Z,100485.78
2023-02-06T06:07:57.838Z,100497.16
2023-02-06T06:09:30.987Z,100481.22
2023-02-06T06:11:04.585Z,100496.97
2023-02-06T06:12:38.184Z,100494.38
2023-02-06T06:14:13.753Z,100496.38
2023-02-06T06:15:46.945Z,100492.81
2023-02-06T06:17:20.464Z,100503.28
2023-02-06T06:18:53.600Z,100508.69
2023-02-06T06:20:27.219Z,100510.44
2023-02-06T06:22:00.419Z,100509.50
2023-02-06T06:23:34.110Z,100499.09
2023-02-06T06:25:07.961Z,100501.00
2023-02-06T06:26:41.529Z,100509.56
2023-02-06T06:28:14.909Z,100502.78
2023-02-06T06:29:49.766Z,100509.00
2023-02-06T06:31:22.980Z,100509.13
2023-02-06T06:32:56.431Z,100510.09
2023-02-06T06:34:29.671Z,100508.38
2023-02-06T06:36:03.050Z,100503.94
2023-02-06T06:37:35.244Z,100507.34
2023-02-06T06:39:08.679Z,100512.47
2023-02-06T06:40:43.079Z,100495.16
2023-02-06T06:42:16.324Z,100504.03
2023-02-06T06:43:51.473Z,100507.53
2023-02-06T06:45:26.375Z,100508.56
2023-02-06T06:46:59.557Z,100510.34
2023-02-06T06:48:34.351Z,100507.88
2023-02-06T06:50:07.097Z,100510.59
2023-02-06T06:51:40.503Z,100494.38
2023-02-06T06:53:13.678Z,100491.19
2023-02-06T06:54:46.915Z,100503.50
2023-02-06T06:56:20.037Z,100499.38
2023-02-06T06:57:53.346Z,100502.25
2023-02-06T06:59:26.627Z,100505.03
2023-02-06T07:01:01.782Z,100509.59
2023-02-06T07:02:34.877Z,100503.72
2023-02-06T07:04:08.272Z,100518.38
2023-02-06T07:05:41.490Z,100508.13
2023-02-06T07:07:15.003Z,100507.34
2023-02-06T07:08:48.097Z,100504.97
2023-02-06T07:10:21.406Z,100511.94
2023-02-06T07:11:54.615Z,100511.28
2023-02-06T07:13:28.009Z,100518.41
2023-02-06T07:15:01.158Z,100526.38
2023-02-06T07:16:35.876Z,100520.50
2023-02-06T07:18:11.568Z,100517.16
2023-02-06T07:19:48.153Z,100509.25
2023-02-06T07:21:21.382Z,100511.19
2023-02-06T07:22:54.934Z,100512.97
2023-02-06T07:24:28.415Z,100518.97
2023-02-06T07:26:02.589Z,100514.91
2023-02-06T07:27:35.760Z,100516.81
2023-02-06T07:29:09.145Z,100517.03
2023-02-06T07:30:42.331Z,100519.84
2023-02-06T07:32:17.062Z,100520.25
2023-02-06T07:33:50.385Z,100524.06
2023-02-06T07:35:23.682Z,100530.31
2023-02-06T07:36:56.906Z,100514.81
2023-02-06T07:38:30.151Z,100521.84
2023-02-06T07:40:03.409Z,100523.59
2023-02-06T07:41:36.801Z,100511.47
2023-02-06T07:43:10.222Z,100525.34
2023-02-06T07:44:43.858Z,100528.16
2023-02-06T07:46:17.136Z,100528.44
2023-02-06T07:47:52.114Z,100526.88
2023-02-06T07:49:25.345Z,100528.72
2023-02-06T07:50:59.187Z,100529.53
2023-02-06T07:52:32.372Z,100532.22
2023-02-06T07:54:06.168Z,100522.84
2023-02-06T07:55:39.424Z,100521.41
2023-02-06T07:57:12.961Z,100525.19
2023-02-06T07:58:47.369Z,100525.44
2023-02-06T08:00:21.051Z,100521.44
2023-02-06T08:01:54.600Z,100530.25
2023-02-06T08:03:29.308Z,100539.97
2023-02-06T08:05:02.404Z,100540.13
2023-02-06T08:06:35.878Z,100536.66
2023-02-06T08:08:09.840Z,100536.59
2023-02-06T08:09:43.303Z,100537.38
2023-02-06T08:11:19.641Z,100541.72
2023-02-06T08:12:53.177Z,100552.13
2023-02-06T08:14:26.962Z,100545.31
2023-02-06T08:16:00.225Z,100545.59
2023-02-06T08:17:33.361Z,100537.19
2023-02-06T08:19:10.965Z,100538.38
2023-02-06T08:20:44.124Z,100548.22
2023-02-06T08:22:21.435Z,100546.72
2023-02-06T08:23:57.826Z,100560.16
2023-02-06T08:25:31.280Z,100549.06
2023-02-06T08:27:04.594Z,100552.75
2023-02-06T08:28:38.688Z,100558.00
2023-02-06T08:30:13.874Z,100563.06
2023-02-06T08:31:47.505Z,100567.44
2023-02-06T08:33:20.634Z,100556.78
2023-02-06T08:34:55.148Z,100561.84
2023-02-06T08:36:29.888Z,100569.50
2023-02-06T08:38:03.386Z,100564.09
2023-02-06T08:39:36.516Z,100563.81
2023-02-06T08:41:18.394Z,100568.94
2023-02-06T08:42:52.265Z,100567.13
2023-02-06T08:44:25.696Z,100563.66
2023-02-06T08:45:59.754Z,100565.41
2023-02-06T08:47:33.242Z,100574.22
2023-02-06T08:49:09.216Z,100576.91
2023-02-06T08:50:44.948Z,100562.31
2023-02-06T08:52:18.262Z,100566.72
2023-02-06T08:53:51.445Z,100569.53
2023-02-06T08:55:37.035Z,100571.50
2023-02-06T08:57:12.677Z,100571.97
2023-02-06T08:58:45.787Z,100574.91
2023-02-06T09:00:19.980Z,100575.13
2023-02-06T09:01:53.269Z,100578.69
2023-02-06T09:03:27.221Z,100579.75
2023-02-06T09:05:00.412Z,100573.13
2023-02-06T09:06:36.062Z,100579.38
2023-02-06T09:08:09.181Z,100576.81
2023-02-06T09:09:42.654Z,100573.13
2023-02-06T09:11:17.897Z,100583.69
2023-02-06T09:12:54.951Z,100574.28
2023-02-06T09:14:29.439Z,100582.16
2023-02-06T09:16:03.076Z,100582.16
2023-02-06T09:17:36.304Z,100590.00
2023-02-06T09:19:11.611Z,100580.22
2023-02-06T09:20:49.725Z,100587.53
2023-02-06T09:22:24.482Z,100594.09
2023-02-06T09:24:00.031Z,100595.53
2023-02-06T09:25:34.512Z,100598.81
2023-02-06T09:27:07.758Z,100582.72
2023-02-06T09:28:41.412Z,100587.81
2023-02-06T09:30:15.457Z,100598.16
2023-02-06T09:31:48.887Z,100597.47
2023-02-06T09:33:22.388Z,100595.41
2023-02-06T09:34:55.649Z,100588.22
2023-02-06T09:36:30.429Z,100590.03
2023-02-06T09:38:05.085Z,100589.56
2023-02-06T09:39:38.285Z,100588.44
2023-02-06T09:41:17.958Z,100573.88
2023-02-06T09:42:53.594Z,100578.06
2023-02-06T09:44:33.898Z,100584.16
2023-02-06T09:46:14.859Z,100570.25
2023-02-06T09:47:51.593Z,100583.22
2023-02-06T09:49:31.337Z,100575.97
2023-02-06T09:51:14.407Z,100571.56
2023-02-06T09:52:57.262Z,100571.75
2023-02-06T09:54:43.234Z,100575.97
2023-02-06T09:56:23.023Z,100573.22
2023-02-06T09:58:03.230Z,100578.63
2023-02-06T09:59:40.954Z,100583.88
2023-02-06T10:01:20.609Z,100583.63
2023-02-06T10:03:34.251Z,100573.06
2023-02-06T10:05:16.537Z,100577.88
2023-02-06T10:06:57.541Z,100580.47
2023-02-06T10:08:38.596Z,100575.66
2023-02-06T10:10:19.181Z,100581.09
2023-02-06T10:11:57.550Z,100577.91
2023-02-06T10:13:35.745Z,100572.91
2023-02-06T10:15:16.378Z,100557.31
2023-02-06T10:16:54.801Z,100568.91
2023-02-06T10:18:33.288Z,100564.72
2023-02-06T10:20:12.194Z,100557.69
2023-02-06T10:21:51.792Z,100572.84
2023-02-06T10:23:34.033Z,100563.16
2023-02-06T10:25:21.733Z,100563.53
2023-02-06T10:26:55.647Z,100562.88
2023-02-06T10:28:30.868Z,100545.44
2023-02-06T10:30:04.460Z,100560.94
2023-02-06T10:31:51.877Z,100564.13
2023-02-06T10:33:33.231Z,100558.16
2023-02-06T10:35:33.567Z,100556.50
2023-02-06T10:37:21.120Z,100552.78
2023-02-06T10:39:18.585Z,100558.78
2023-02-06T10:40:59.556Z,100552.72
2023-02-06T10:42:43.859Z,100552.47
2023-02-06T10:44:24.416Z,100554.34
2023-02-06T10:46:08.161Z,100551.97
2023-02-06T10:47:46.771Z,100551.38
2023-02-06T10:49:28.057Z,100560.38
2023-02-06T10:51:11.351Z,100550.31
2023-02-06T10:52:45.300Z,100551.81
2023-02-06T10:54:22.277Z,100542.94
2023-02-06T10:56:00.877Z,100551.50
2023-02-06T10:57:35.695Z,100539.72
2023-02-06T10:59:15.975Z,100545.84
2023-02-06T11:00:51.823Z,100528.38
2023-02-06T11:02:28.569Z,100544.13
2023-02-06T11:04:15.137Z,100538.69
2023-02-06T11:05:50.115Z,100536.22
2023-02-06T11:07:28.187Z,100545.81
2023-02-06T11:09:01.596Z,100545.00
2023-02-06T11:10:35.372Z,100537.53
2023-02-06T11:12:21.378Z,100537.78
2023-02-06T11:13:58.433Z,100540.25
2023-02-06T11:15:37.654Z,100541.97
2023-02-06T11:17:15.373Z,100543.66
2023-02-06T11:18:50.692Z,100551.50
2023-02-06T11:20:28.198Z,100539.69
2023-02-06T11:22:12.123Z,100540.09
2023-02-06T11:23:45.428Z,100541.13
2023-02-06T11:25:27.389Z,100542.16
2023-02-06T11:27:13.277Z,100539.69
2023-02-06T11:28:54.949Z,100547.41
2023-02-06T11:30:34.738Z,100546.06
2023-02-06T11:32:09.983Z,100550.50
2023-02-06T11:33:49.921Z,100551.00
2023-02-06T11:35:27.482Z,100551.41
2023-02-06T11:37:02.439Z,100554.97
2023-02-06T11:38:35.802Z,100546.56
2023-02-06T11:40:23.106Z,100558.75
2023-02-06T11:42:02.037Z,100542.28
2023-02-06T11:43:49.528Z,100547.50
2023-02-06T11:45:30.058Z,100538.09
2023-02-06T11:47:22.325Z,100538.59
2023-02-06T11:49:08.564Z,100542.22
2023-02-06T11:50:41.938Z,100537.88
2023-02-06T11:52:29.570Z,100548.03
2023-02-06T11:54:04.366Z,100545.47
2023-02-06T11:55:40.203Z,100540.47
2023-02-06T11:57:22.662Z,100534.59
2023-02-06T11:59:07.370Z,100541.75
2023-02-06T12:00:43.548Z,100540.88
2023-02-06T12:02:28.249Z,100533.06
2023-02-06T12:04:01.575Z,100543.75
2023-02-06T12:05:41.891Z,100533.16
2023-02-06T12:07:28.905Z,100546.00
2023-02-06T12:09:05.942Z,100546.84
2023-02-06T12:10:52.388Z,100544.84
2023-02-06T12:12:30.954Z,100558.69
2023-02-06T12:14:09.186Z,100569.78
2023-02-06T12:15:47.809Z,100560.56
2023-02-06T12:17:32.074Z,100566.22
2023-02-06T12:19:12.543Z,100567.41
2023-02-06T12:20:51.542Z,100563.47
2023-02-06T12:22:26.846Z,100569.84
2023-02-06T12:24:03.536Z,100556.97
2023-02-06T12:25:40.131Z,100563.59
2023-02-06T12:27:18.622Z,100557.25
2023-02-06T12:28:57.794Z,100552.91
2023-02-06T12:30:36.288Z,100567.78
2023-02-06T12:32:18.392Z,100578.16
2023-02-06T12:33:55.129Z,100568.44
2023-02-06T12:35:36.552Z,100567.53
2023-02-06T12:37:16.567Z,100575.13
2023-02-06T12:38:55.318Z,100574.50
2023-02-06T12:40:40.420Z,100581.69
2023-02-06T12:42:36.267Z,100584.41
2023-02-06T12:44:21.027Z,100568.00
2023-02-06T12:45:59.960Z,100578.22
2023-02-06T12:47:42.576Z,100572.53
2023-02-06T12:49:22.013Z,100573.16
2023-02-06T12:51:02.094Z,100586.13
2023-02-06T12:52:41.299Z,100584.28
2023-02-06T12:54:18.874Z,100593.16
2023-02-06T12:56:00.350Z,100586.03
2023-02-06T12:57:34.783Z,100588.41
2023-02-06T12:59:31.057Z,100596.41
2023-02-06T13:01:29.235Z,100592.28
2023-02-06T13:03:28.689Z,100600.84
2023-02-06T13:05:05.946Z,100596.53
2023-02-06T13:06:48.310Z,100607.75
2023-02-06T13:08:27.745Z,100602.59
2023-02-06T13:10:05.025Z,100609.63
2023-02-06T13:11:42.630Z,100613.31
2023-02-06T13:13:38.089Z,100607.50
2023-02-06T13:15:23.762Z,100610.31
2023-02-06T13:17:00.176Z,100601.69
2023-02-06T13:18:55.482Z,100613.13
2023-02-06T13:20:31.857Z,100607.13
2023-02-06T13:22:36.476Z,100614.97
2023-02-06T13:24:20.661Z,100618.75
2023-02-06T13:25:54.250Z,100624.88
2023-02-06T13:27:39.390Z,100617.84
2023-02-06T13:29:25.565Z,100620.28
2023-02-06T13:31:02.556Z,100608.09
2023-02-06T13:32:45.431Z,100621.16
2023-02-06T13:34:20.392Z,100624.47
2023-02-06T13:35:59.112Z,100629.44
2023-02-06T13:37:35.541Z,100615.53
2023-02-06T13:39:22.726Z,100620.72
2023-02-06T13:41:28.350Z,100619.88
2023-02-06T13:43:05.310Z,100621.50
2023-02-06T13:44:40.418Z,100622.31
2023-02-06T13:46:17.206Z,100627.59
2023-02-06T13:48:30.584Z,100624.88
2023-02-06T13:50:32.631Z,100619.66
2023-02-06T13:52:15.443Z,100624.06
2023-02-06T13:54:13.774Z,100618.72
2023-02-06T13:56:02.094Z,100624.66
2023-02-06T13:58:04.063Z,100624.50
2023-02-06T13:59:39.797Z,100623.66
2023-02-06T14:01:20.154Z,100630.69
2023-02-06T14:02:57.158Z,100620.13
2023-02-06T14:04:33.424Z,100627.22
2023-02-06T14:06:22.291Z,100624.63
2023-02-06T14:08:05.706Z,100626.38
2023-02-06T14:10:05.294Z,100619.31
2023-02-06T14:12:12.396Z,100623.66
2023-02-06T14:14:01.974Z,100623.72
2023-02-06T14:15:48.482Z,100620.13
2023-02-06T14:17:38.845Z,100623.69
2023-02-06T14:19:22.311Z,100623.66
2023-02-06T14:21:05.035Z,100616.53
2023-02-06T14:22:48.333Z,100620.03
2023-02-06T14:24:42.468Z,100615.75
2023-02-06T14:26:27.289Z,100625.31
2023-02-06T14:28:16.046Z,100623.66
2023-02-06T14:30:00.817Z,100613.16
2023-02-06T14:31:49.358Z,100618.28
2023-02-06T14:33:42.572Z,100616.63
2023-02-06T14:35:29.434Z,100634.06
2023-02-06T14:37:21.906Z,100627.16
2023-02-06T14:39:26.365Z,100640.13
2023-02-06T14:41:01.990Z,100624.47
2023-02-06T14:42:40.135Z,100635.81
2023-02-06T14:44:21.414Z,100630.59
2023-02-06T14:46:06.731Z,100634.00
2023-02-06T14:47:43.561Z,100624.41
2023-02-06T14:49:20.054Z,100626.03
2023-02-06T14:50:56.870Z,100630.22
2023-02-06T14:52:33.699Z,100635.34
2023-02-06T14:54:29.375Z,100630.06
2023-02-06T14:56:18.232Z,100629.88
2023-02-06T14:57:51.855Z,100638.63
2023-02-06T14:59:25.291Z,100647.19
2023-02-06T15:01:14.857Z,100644.59
2023-02-06T15:02:48.355Z,100645.25
2023-02-06T15:04:23.367Z,100634.66
2023-02-06T15:06:02.037Z,100641.66
2023-02-06T15:07:39.998Z,100639.66
2023-02-06T15:09:29.810Z,100648.06
2023-02-06T15:11:05.442Z,100650.66
2023-02-06T15:12:39.511Z,100654.91
2023-02-06T15:14:22.705Z,100657.56
2023-02-06T15:15:59.720Z,100659.25
2023-02-06T15:17:34.498Z,100656.53
2023-02-06T15:19:12.669Z,100656.53
2023-02-06T15:20:47.828Z,100659.03
2023-02-06T15:22:25.050Z,100660.03
2023-02-06T15:24:08.139Z,100658.22
2023-02-06T15:25:58.148Z,100659.69
2023-02-06T15:27:33.371Z,100669.78
2023-02-06T15:29:27.741Z,100671.59
2023-02-06T15:31:02.488Z,100678.53
2023-02-06T15:32:39.086Z,100677.72
2023-02-06T15:34:18.237Z,100674.22
2023-02-06T15:35:54.316Z,100673.34
2023-02-06T15:37:30.314Z,100671.69
2023-02-06T15:39:07.814Z,100688.88
2023-02-06T15:40:46.302Z,100673.69
2023-02-06T15:42:21.488Z,100681.69
2023-02-06T15:44:00.104Z,100695.72
2023-02-06T15:45:36.054Z,100693.06
2023-02-06T15:47:14.579Z,100693.91
2023-02-06T15:48:52.401Z,100710.44
2023-02-06T15:50:28.759Z,100697.47
2023-02-06T15:52:06.079Z,100705.41
2023-02-06T15:53:41.256Z,100700.06
2023-02-06T15:55:26.428Z,100709.50
2023-02-06T15:57:05.781Z,100703.50
2023-02-06T15:58:39.190Z,100712.00
2023-02-06T16:00:23.592Z,100721.38
2023-02-06T16:01:59.566Z,100723.16
2023-02-06T16:03:33.450Z,100719.72
2023-02-06T16:05:16.194Z,100722.97
2023-02-06T16:07:02.400Z,100734.22
2023-02-06T16:08:38.268Z,100731.63
2023-02-06T16:10:21.819Z,100734.91
2023-02-06T16:11:57.073Z,100741.00
2023-02-06T16:13:33.331Z,100750.59
2023-02-06T16:15:32.920Z,100746.16
2023-02-06T16:17:23.550Z,100750.50
2023-02-06T16:18:58.626Z,100746.31
2023-02-06T16:20:37.230Z,100761.78
2023-02-06T16:22:23.689Z,100753.84
2023-02-06T16:24:16.502Z,100765.28
2023-02-06T16:26:00.440Z,100767.97
2023-02-06T16:27:34.801Z,100762.78
2023-02-06T16:29:22.117Z,100775.94
2023-02-06T16:30:56.367Z,100773.22
2023-02-06T16:32:31.555Z,100769.78
2023-02-06T16:34:21.264Z,100779.16
2023-02-06T16:35:54.723Z,100777.41
2023-02-06T16:37:30.226Z,100789.75
2023-02-06T16:39:04.860Z,100786.31
2023-02-06T16:40:38.627Z,100795.81
2023-02-06T16:42:17.676Z,100798.56
2023-02-06T16:43:50.850Z,100803.66
2023-02-06T16:45:27.882Z,100801.00
2023-02-06T16:47:01.142Z,100795.81
2023-02-06T16:48:35.328Z,100780.91
2023-02-06T16:50:10.457Z,100805.41
2023-02-06T16:51:46.020Z,100804.50
2023-02-06T16:53:22.748Z,100809.59
2023-02-06T16:54:58.997Z,100811.38
2023-02-06T16:56:32.685Z,100808.03
2023-02-06T16:58:06.246Z,100802.84
2023-02-06T16:59:39.415Z,100810.53
2023-02-06T17:01:22.179Z,100816.66
2023-02-06T17:02:56.365Z,100820.09
2023-02-06T17:04:29.658Z,100812.34
2023-02-06T17:06:04.185Z,100808.03
2023-02-06T17:07:37.454Z,100807.94
2023-02-06T17:09:11.121Z,100808.72
2023-02-06T17:10:44.895Z,100814.72
2023-02-06T17:12:20.525Z,100812.94
2023-02-06T17:13:54.002Z,100817.94
2023-02-06T17:15:27.258Z,100816.25
2023-02-06T17:17:05.153Z,100807.56
2023-02-06T17:18:38.447Z,100810.06
2023-02-06T17:20:25.602Z,100808.94
2023-02-06T17:21:58.879Z,100814.19
2023-02-06T17:23:32.611Z,100806.31
2023-02-06T17:25:06.755Z,100800.97
2023-02-06T17:26:39.965Z,100819.50
2023-02-06T17:28:15.324Z,100811.56
2023-02-06T17:29:49.593Z,100813.38
2023-02-06T17:31:23.202Z,100822.94
2023-02-06T17:32:57.973Z,100829.78
2023-02-06T17:34:32.927Z,100825.53
2023-02-06T17:36:08.169Z,100824.56
2023-02-06T17:37:41.709Z,100803.72
2023-02-06T17:39:14.897Z,100829.13
2023-02-06T17:40:48.063Z,100824.78
2023-02-06T17:42:23.355Z,100819.59
2023-02-06T17:43:56.434Z,100822.94
2023-02-06T17:45:29.651Z,100819.38
2023-02-06T17:47:02.876Z,100828.13
2023-02-06T17:48:42.775Z,100838.63
2023-02-06T17:50:18.631Z,100837.56
2023-02-06T17:51:52.106Z,100828.81
2023-02-06T17:53:25.206Z,100836.59
2023-02-06T17:54:58.573Z,100837.44
2023-02-06T17:56:31.722Z,100833.03
2023-02-06T17:58:05.573Z,100839.09
2023-02-06T17:59:38.701Z,100839.97
2023-02-06T18:01:13.437Z,100839.91
2023-02-06T18:02:46.856Z,100838.28
2023-02-06T18:04:21.686Z,100834.69
2023-02-06T18:05:59.151Z,100837.28
2023-02-06T18:07:32.535Z,100847.81
2023-02-06T18:09:05.862Z,100847.03
2023-02-06T18:10:40.499Z,100840.16
2023-02-06T18:12:13.590Z,100840.72
2023-02-06T18:13:49.236Z,100841.44
2023-02-06T18:15:22.603Z,100849.34
2023-02-06T18:16:55.910Z,100849.34
2023-02-06T18:18:30.590Z,100862.50
2023-02-06T18:20:06.448Z,100842.50
2023-02-06T18:21:39.694Z,100852.22
2023-02-06T18:23:13.313Z,100850.34
2023-02-06T18:24:47.268Z,100843.47
2023-02-06T18:26:21.476Z,100841.94
2023-02-06T18:27:55.107Z,100849.69
2023-02-06T18:29:37.286Z,100852.22
2023-02-06T18:31:24.283Z,100853.13
2023-02-06T18:32:57.505Z,100857.41
2023-02-06T18:34:30.968Z,100848.38